• Join FlightAware (Why Join?)
  • Login
  • US Flag 
07:51PM EDT


 

Airport Tracker/Info


-or-


 

Live Flight TrackerFlight Track Log ✈ EJA929 ✈ 25-Jul-2013 ✈ KTEB - KHYA

Flight Track Log - Related Links

Times and Time Zones

All times are in EDT time to prevent confusion due to time zone crossing. See the EJA929 flight status page for this flight to view local times or setup timezone preferences in your user account.

Time Position Orientation Groundspeed Altitude Reporting Facility
EDT Latitude Longitude Course Direction KTS MPH feet Rate Location/Type
02:58PM 40.8833 -74.0333 311° West 177 204 2,000  Level New York TRACON
02:59PM 40.9167 -74.0833 311° West 218 251 3,100 1,680 Climbing New York TRACON
03:00PM 40.9167 -74.1500 270° West 211 243 5,400 1,380 Climbing New York TRACON
03:01PM 40.9333 -74.2333 285° West 264 304 6,000 240 Climbing New York TRACON
03:02PM 41.0000 -74.2333 360° North 277 319 6,000 180 Level New York TRACON
03:04PM 41.1375 -74.1242 31° Northeast 294 338 6,700 780 Climbing Boston Center
03:05PM 41.1617 -74.0336 70° East 271 312 8,600 2,100 Climbing Boston Center
03:06PM 41.1800 -73.9128 79° East 290 334 11,000 1,980 Climbing Boston Center
03:07PM 41.1961 -73.7972 79° East 336 387 12,600 1,680 Climbing Boston Center
03:08PM 41.2103 -73.6514 83° East 360 414 14,400 1,080 Climbing Boston Center
03:10PM 41.2244 -73.4750 84° East 389 448 15,000 240 Climbing Boston Center
03:11PM 41.2361 -73.3261 84° East 398 458 15,000  Level Boston Center
03:12PM 41.2478 -73.1689 84° East 411 473 15,000  Level Boston Center
03:13PM 41.2611 -73.0117 84° East 422 486 15,000  Level Boston Center
03:14PM 41.2722 -72.8572 84° East 422 486 15,000  Level Boston Center
03:15PM 41.2850 -72.7025 84° East 422 486 15,000  Level Boston Center
03:16PM 41.2958 -72.5478 85° East 422 486 15,000  Level Boston Center
03:17PM 41.3064 -72.3903 85° East 422 486 15,000  Level Boston Center
03:18PM 41.3186 -72.2467 83° East 427 491 15,000  Level Boston Center
03:19PM 41.3306 -72.0781 85° East 427 491 15,000  Level Boston Center
03:20PM 41.3386 -71.9369 86° East 427 491 15,000  Level Boston Center
03:21PM 41.3458 -71.7628 87° East 427 491 15,000  Level Boston Center
03:22PM 41.3511 -71.6189 87° East 427 491 15,000  Level Boston Center
03:23PM 41.3603 -71.4417 86° East 427 491 15,000 -420 Level Boston Center
03:24PM 41.3672 -71.3006 86° East 427 491 14,200 -1,080 Descending Boston Center
03:25PM 41.3758 -71.1317 86° East 420 483 12,900 -1,260 Descending Boston Center
03:26PM 41.3783 -70.9906 89° East 420 483 11,500 -960 Descending Boston Center
03:27PM 41.3536 -70.8583 104° East 312 359 10,900 -1,320 Descending Boston Center
03:28PM 41.3064 -70.7628 123° Southeast 286 329 8,900 -1,920 Descending Boston Center
03:29PM 41.2611 -70.6700 123° Southeast 280 322 6,800 -1,740 Descending Boston Center
03:30PM 41.2472 -70.5822 102° East 270 311 5,200 -900 Descending Boston Center
03:31PM 41.3200 -70.5772 North 150 173 5,000 -120 Descending Boston Center
03:32PM 41.3744 -70.5811 357° North 162 186 5,000  Level Boston Center
03:33PM 41.4175 -70.5494 29° Northeast 176 203 5,000  Level Boston Center
03:34PM 41.4586 -70.5067 38° Northeast 181 208 5,000  Level Boston Center
03:35PM 41.4953 -70.4667 39° Northeast 181 208 5,000 -600 Level Boston Center
03:36PM 41.5300 -70.4297 39° Northeast 173 199 3,900 -600 Descending Boston Center
03:37PM 41.5678 -70.4450 343° North 130 150 3,900  Level Boston Center
03:38PM 41.6019 -70.4911 315° West 136 157 3,900  Level Boston Center
03:39PM 41.6342 -70.5347 315° West 159 183 3,900  Level Boston Center
03:41PM 41.6564 -70.3747 43° Northeast  Level Estimated
03:48PM 41.6693 -70.2804 43° Northeast  Level Estimated
03:49PM 41.6693 -70.2804 43° Northeast  Level Estimated
03:50PM 41.6693 -70.2804 43° Northeast  Level Estimated
03:51PM 41.6693 -70.2804 43° Northeast  Level Estimated
03:52PM 41.6693 -70.2804 43° Northeast  Level Estimated